Time;durP1;ratioP1;P1;durP2;ratioP2;P2;SDS_P1;SDS_P2;PMS_P1;PMS_P2;Temp;Humidity;BMP_temperature;BMP_pressure;BME280_temperature;BME280_humidity;BME280_pressure;Samples;Min_cycle;Max_cycle;Signal;HPM_P1;HPM_P2
2024/01/28 00:00:18;;;;;;;1.73;1.63;;;3.70;98.20;;;;;;5005956;28;20650;-78
2024/01/28 00:02:44;;;;;;;1.60;1.30;;;3.60;98.20;;;;;;5008200;28;20479;-78
2024/01/28 00:05:13;;;;;;;1.70;1.40;;;3.60;98.20;;;;;;5006321;28;20464;-78
2024/01/28 00:07:40;;;;;;;1.70;1.47;;;3.60;98.20;;;;;;4995623;28;21030;-78
2024/01/28 00:10:09;;;;;;;1.63;1.43;;;3.60;98.20;;;;;;5006835;28;20568;-78
2024/01/28 00:12:37;;;;;;;1.70;1.60;;;3.60;98.20;;;;;;5010449;28;20475;-78
2024/01/28 00:15:06;;;;;;;1.70;1.50;;;3.60;98.20;;;;;;5007247;28;20476;-79
2024/01/28 00:17:33;;;;;;;1.70;1.47;;;3.60;98.20;;;;;;5003755;28;20561;-79
2024/01/28 00:20:00;;;;;;;1.60;1.40;;;3.60;98.20;;;;;;5003272;28;20897;-78
2024/01/28 00:22:27;;;;;;;1.63;1.43;;;3.60;98.20;;;;;;5001947;28;21069;-78
2024/01/28 00:24:53;;;;;;;1.70;1.50;;;3.60;98.20;;;;;;5007080;28;20465;-77
2024/01/28 00:27:20;;;;;;;1.60;1.40;;;3.60;98.20;;;;;;4989265;28;20491;-78
2024/01/28 00:29:48;;;;;;;1.70;1.50;;;3.60;98.20;;;;;;5002942;28;20460;-78
2024/01/28 00:32:15;;;;;;;1.60;1.40;;;3.60;98.20;;;;;;4992987;28;20486;-77
2024/01/28 00:34:42;;;;;;;1.60;1.40;;;3.60;98.20;;;;;;5002315;28;20671;-78
2024/01/28 00:37:10;;;;;;;1.90;1.70;;;3.60;98.20;;;;;;4993412;28;20583;-78
2024/01/28 00:39:37;;;;;;;1.60;1.40;;;3.50;98.20;;;;;;5006052;28;20881;-79
2024/01/28 00:42:04;;;;;;;1.60;1.40;;;3.60;98.20;;;;;;5004426;28;21381;-79
2024/01/28 00:44:31;;;;;;;1.63;1.50;;;3.60;98.20;;;;;;5014777;28;20484;-78
2024/01/28 00:47:00;;;;;;;1.60;1.30;;;3.60;98.20;;;;;;5009692;28;20541;-78
2024/01/28 00:49:29;;;;;;;1.70;1.50;;;3.60;98.20;;;;;;5015639;28;20481;-78
2024/01/28 00:51:56;;;;;;;1.60;1.40;;;3.60;98.20;;;;;;5005763;28;20879;-78
2024/01/28 00:54:23;;;;;;;1.60;1.40;;;3.60;98.20;;;;;;5017798;28;20487;-78
2024/01/28 00:56:50;;;;;;;1.60;1.40;;;3.50;98.20;;;;;;4997632;28;20531;-78
2024/01/28 00:59:17;;;;;;;1.63;1.40;;;3.50;98.20;;;;;;5006791;28;20868;-81
2024/01/28 01:01:44;;;;;;;2.67;2.47;;;3.50;98.20;;;;;;4995948;28;20575;-79
2024/01/28 01:04:12;;;;;;;1.67;1.47;;;3.50;98.20;;;;;;5007248;28;20480;-77
2024/01/28 01:06:42;;;;;;;1.70;1.40;;;3.50;98.20;;;;;;5007892;28;20522;-78
2024/01/28 01:09:09;;;;;;;4.90;4.50;;;3.50;98.20;;;;;;5018628;28;21024;-78
2024/01/28 01:11:36;;;;;;;1.63;1.40;;;3.50;98.20;;;;;;4999757;28;20475;-78
2024/01/28 01:14:03;;;;;;;1.60;1.30;;;3.40;98.20;;;;;;5008320;28;20618;-78
2024/01/28 01:16:30;;;;;;;1.70;1.43;;;3.40;98.20;;;;;;4996558;28;20480;-78
2024/01/28 01:18:57;;;;;;;1.60;1.40;;;3.40;98.20;;;;;;5006163;28;20856;-78
2024/01/28 01:21:25;;;;;;;1.60;1.30;;;3.40;98.20;;;;;;5005608;28;20568;-78
2024/01/28 01:23:52;;;;;;;1.60;1.40;;;3.40;98.20;;;;;;5020937;28;20483;-78
2024/01/28 01:26:19;;;;;;;2.70;2.50;;;3.40;98.20;;;;;;4998659;28;20586;-78
2024/01/28 01:28:46;;;;;;;1.63;1.37;;;3.40;98.20;;;;;;5007948;28;20463;-78
2024/01/28 01:31:13;;;;;;;1.70;1.57;;;3.30;98.20;;;;;;5000565;28;20471;-78
2024/01/28 01:33:41;;;;;;;1.60;1.40;;;3.30;98.20;;;;;;5020891;28;20456;-79
2024/01/28 01:36:08;;;;;;;1.60;1.40;;;3.30;98.20;;;;;;5000719;28;20980;-78
2024/01/28 01:38:36;;;;;;;1.63;1.40;;;3.40;98.20;;;;;;5020328;28;20463;-78
2024/01/28 01:41:03;;;;;;;2.50;2.30;;;3.30;98.20;;;;;;4995157;28;20555;-78
2024/01/28 01:43:30;;;;;;;1.70;1.50;;;3.30;98.20;;;;;;5003013;28;20510;-79
2024/01/28 01:45:57;;;;;;;1.67;1.40;;;3.40;98.20;;;;;;4999676;28;20862;-78
2024/01/28 01:48:24;;;;;;;1.60;1.47;;;3.30;98.20;;;;;;5021815;28;20875;-78
2024/01/28 01:50:51;;;;;;;1.63;1.40;;;3.30;98.20;;;;;;4997783;28;20955;-78
2024/01/28 01:53:18;;;;;;;1.70;1.60;;;3.30;98.20;;;;;;5012276;28;20936;-79
2024/01/28 01:55:47;;;;;;;1.60;1.40;;;3.30;98.20;;;;;;5007657;28;20460;-78
2024/01/28 01:58:14;;;;;;;1.60;1.30;;;3.30;98.20;;;;;;4996429;28;20494;-79
2024/01/28 02:00:42;;;;;;;1.63;1.40;;;3.30;98.20;;;;;;5007000;28;20456;-79
2024/01/28 02:03:09;;;;;;;1.70;1.40;;;3.30;98.20;;;;;;5006400;28;20928;-79
2024/01/28 02:05:35;;;;;;;1.67;1.50;;;3.30;98.20;;;;;;5005581;28;20482;-78
2024/01/28 02:08:02;;;;;;;1.70;1.50;;;3.30;98.20;;;;;;4994622;28;20986;-79
2024/01/28 02:10:30;;;;;;;1.67;1.50;;;3.30;98.20;;;;;;5005878;28;20468;-79
2024/01/28 02:12:58;;;;;;;1.63;1.40;;;3.30;98.20;;;;;;5012121;28;20475;-79
2024/01/28 02:15:25;;;;;;;1.70;1.60;;;3.30;98.20;;;;;;5004156;28;20467;-79
2024/01/28 02:17:52;;;;;;;1.70;1.50;;;3.20;98.20;;;;;;5012624;28;21035;-78
2024/01/28 02:20:19;;;;;;;1.70;1.60;;;3.30;98.20;;;;;;5007261;28;20464;-79
2024/01/28 02:22:45;;;;;;;1.67;1.40;;;3.30;98.20;;;;;;5014031;28;21023;-79
2024/01/28 02:25:14;;;;;;;1.60;1.30;;;3.30;98.20;;;;;;5009191;28;20495;-78
2024/01/28 02:27:41;;;;;;;1.60;1.33;;;3.30;98.20;;;;;;4987783;28;20973;-79
2024/01/28 02:30:09;;;;;;;1.60;1.30;;;3.30;98.20;;;;;;5007393;28;20471;-78
2024/01/28 02:32:36;;;;;;;1.67;1.40;;;3.30;98.20;;;;;;5013034;28;20487;-79
2024/01/28 02:35:02;;;;;;;1.63;1.40;;;3.30;98.20;;;;;;5009229;28;20471;-78
2024/01/28 02:37:29;;;;;;;1.60;1.33;;;3.40;98.20;;;;;;5008756;28;20483;-76
2024/01/28 02:39:56;;;;;;;1.70;1.50;;;3.40;98.20;;;;;;5004622;28;20464;-78
2024/01/28 02:42:24;;;;;;;1.60;1.40;;;3.40;98.20;;;;;;5010568;28;20594;-78
2024/01/28 02:44:50;;;;;;;1.70;1.50;;;3.40;98.20;;;;;;5011204;28;20488;-78
2024/01/28 02:47:17;;;;;;;1.70;1.50;;;3.40;98.20;;;;;;4997585;28;20496;-79
2024/01/28 02:49:44;;;;;;;1.60;1.40;;;3.40;98.20;;;;;;5004875;28;20472;-79
2024/01/28 02:52:11;;;;;;;1.60;1.40;;;3.40;98.20;;;;;;5006441;28;20487;-79
2024/01/28 02:54:37;;;;;;;1.70;1.50;;;3.40;98.20;;;;;;5012999;28;20487;-79
2024/01/28 02:57:04;;;;;;;1.70;1.60;;;3.40;98.20;;;;;;4989989;28;20629;-79
2024/01/28 02:59:32;;;;;;;1.60;1.47;;;3.40;98.20;;;;;;5006807;28;20606;-78
2024/01/28 03:01:59;;;;;;;1.60;1.40;;;3.40;98.20;;;;;;5005029;28;20482;-78
2024/01/28 03:04:26;;;;;;;1.67;1.40;;;3.40;98.20;;;;;;5010946;28;20488;-79
2024/01/28 03:06:53;;;;;;;1.70;1.50;;;3.40;98.20;;;;;;5005108;28;20514;-79
2024/01/28 03:09:19;;;;;;;1.70;1.40;;;3.40;98.20;;;;;;5014543;28;20474;-79
2024/01/28 03:11:46;;;;;;;3.20;3.00;;;3.40;98.20;;;;;;4997129;28;20484;-78
2024/01/28 03:14:13;;;;;;;1.70;1.50;;;3.40;98.20;;;;;;5002266;28;20460;-78
2024/01/28 03:16:41;;;;;;;1.70;1.53;;;3.40;98.20;;;;;;5004605;28;20867;-78
2024/01/28 03:19:08;;;;;;;3.90;3.60;;;3.40;98.20;;;;;;5016425;28;20554;-78
2024/01/28 03:21:35;;;;;;;1.60;1.40;;;3.40;98.20;;;;;;5001683;28;21016;-78
2024/01/28 03:24:02;;;;;;;1.70;1.50;;;3.40;98.20;;;;;;5016065;28;20480;-78
2024/01/28 03:26:28;;;;;;;1.70;1.40;;;3.40;98.20;;;;;;5000625;28;20504;-78
2024/01/28 03:28:55;;;;;;;1.60;1.40;;;3.40;98.20;;;;;;5008388;28;20774;-78
2024/01/28 03:31:22;;;;;;;1.80;1.70;;;3.40;98.20;;;;;;5000881;28;20497;-79
2024/01/28 03:33:50;;;;;;;1.63;1.40;;;3.40;98.20;;;;;;5018128;28;20460;-78
2024/01/28 03:36:17;;;;;;;1.60;1.50;;;3.40;98.20;;;;;;4996497;28;21121;-76
2024/01/28 03:38:44;;;;;;;2.00;1.80;;;3.40;98.20;;;;;;5006858;28;20482;-79
2024/01/28 03:41:10;;;;;;;1.70;1.40;;;3.40;98.20;;;;;;4994236;28;20926;-79
2024/01/28 03:43:37;;;;;;;1.60;1.40;;;3.40;98.20;;;;;;5001437;28;20491;-78
2024/01/28 03:46:07;;;;;;;1.60;1.50;;;3.40;98.20;;;;;;4997115;28;20484;-79
2024/01/28 03:48:34;;;;;;;4.13;3.83;;;3.40;98.20;;;;;;5015041;28;20871;-78
2024/01/28 03:51:02;;;;;;;1.60;1.40;;;3.40;98.20;;;;;;4997465;28;20563;-78
2024/01/28 03:53:29;;;;;;;1.60;1.30;;;3.40;98.20;;;;;;5019117;28;20850;-79
2024/01/28 03:55:55;;;;;;;1.60;1.40;;;3.40;98.20;;;;;;4997123;28;20610;-79
2024/01/28 03:58:22;;;;;;;1.80;1.70;;;3.40;98.20;;;;;;5019796;28;20514;-78
2024/01/28 04:00:49;;;;;;;1.63;1.37;;;3.40;98.20;;;;;;4996996;28;20754;-78
2024/01/28 04:03:16;;;;;;;1.70;1.50;;;3.40;98.20;;;;;;5000374;28;20470;-79
2024/01/28 04:05:43;;;;;;;1.60;1.43;;;3.40;98.20;;;;;;5005022;28;20484;-78
2024/01/28 04:08:11;;;;;;;1.60;1.40;;;3.40;98.20;;;;;;5013384;28;20499;-79
2024/01/28 04:10:38;;;;;;;1.70;1.60;;;3.40;98.20;;;;;;5006461;28;20512;-79
2024/01/28 04:13:05;;;;;;;1.60;1.50;;;3.40;98.20;;;;;;5013373;28;20956;-79
2024/01/28 04:15:32;;;;;;;1.60;1.30;;;3.30;98.20;;;;;;5007811;28;20555;-79
2024/01/28 04:17:59;;;;;;;1.60;1.40;;;3.30;98.20;;;;;;4993764;28;20583;-78
2024/01/28 04:20:26;;;;;;;1.70;1.60;;;3.30;98.20;;;;;;5013872;28;20455;-79
2024/01/28 04:22:52;;;;;;;1.70;1.50;;;3.30;98.20;;;;;;4988726;28;20568;-79
2024/01/28 04:25:20;;;;;;;47.13;13.60;;;3.20;98.20;;;;;;5012257;28;20491;-78
2024/01/28 04:27:47;;;;;;;1.63;1.40;;;3.20;98.20;;;;;;4993253;28;20487;-78
2024/01/28 04:30:14;;;;;;;1.60;1.30;;;3.20;98.20;;;;;;5010748;28;20471;-76
2024/01/28 04:32:41;;;;;;;1.60;1.40;;;3.20;98.20;;;;;;5014168;28;20518;-79
2024/01/28 04:35:12;;;;;;;2.97;2.77;;;3.10;98.20;;;;;;5011319;28;20460;-78
2024/01/28 04:37:38;;;;;;;1.73;1.63;;;3.10;98.20;;;;;;5012281;28;20525;-78
2024/01/28 04:40:06;;;;;;;1.60;1.33;;;3.10;98.20;;;;;;5010674;28;20464;-78
2024/01/28 04:42:34;;;;;;;1.70;1.50;;;3.10;98.20;;;;;;5010068;28;20974;-78
2024/01/28 04:45:02;;;;;;;1.60;1.40;;;3.20;98.20;;;;;;5008995;28;21068;-79
2024/01/28 04:47:29;;;;;;;1.67;1.40;;;3.20;98.20;;;;;;5011690;28;20995;-78
2024/01/28 04:49:56;;;;;;;1.60;1.40;;;3.30;98.20;;;;;;5011524;28;20530;-78
2024/01/28 04:52:23;;;;;;;1.70;1.57;;;3.30;98.20;;;;;;4990813;28;20472;-78
2024/01/28 04:54:49;;;;;;;1.60;1.40;;;3.30;98.20;;;;;;5008392;28;20864;-78
2024/01/28 04:57:16;;;;;;;1.60;1.50;;;3.30;98.20;;;;;;5004460;28;20475;-78
2024/01/28 04:59:44;;;;;;;1.70;1.50;;;3.30;98.20;;;;;;5014929;28;20464;-79
2024/01/28 05:02:11;;;;;;;1.60;1.40;;;3.30;98.20;;;;;;4997781;28;20480;-78
2024/01/28 05:04:38;;;;;;;1.70;1.60;;;3.40;98.20;;;;;;5007654;28;20494;-78
2024/01/28 05:07:05;;;;;;;1.70;1.60;;;3.40;98.20;;;;;;4998220;28;20551;-79
2024/01/28 05:09:32;;;;;;;1.67;1.50;;;3.40;98.20;;;;;;5010883;28;20529;-79
2024/01/28 05:11:59;;;;;;;1.67;1.37;;;3.40;98.20;;;;;;4995273;28;20480;-78
2024/01/28 05:14:26;;;;;;;1.80;1.70;;;3.50;98.20;;;;;;5008255;28;20484;-78
2024/01/28 05:16:54;;;;;;;1.60;1.47;;;3.50;98.20;;;;;;5008428;28;20483;-79
2024/01/28 05:19:21;;;;;;;1.60;1.40;;;3.50;98.20;;;;;;5016580;28;20474;-79
2024/01/28 05:21:47;;;;;;;1.70;1.57;;;3.50;98.20;;;;;;5000445;28;20488;-78
2024/01/28 05:24:14;;;;;;;1.70;1.60;;;3.60;98.20;;;;;;5012899;28;20494;-79
2024/01/28 05:26:42;;;;;;;1.60;1.30;;;3.70;98.20;;;;;;5007396;28;20487;-78
2024/01/28 05:29:09;;;;;;;1.67;1.50;;;3.80;98.20;;;;;;5016688;28;20466;-78
2024/01/28 05:31:37;;;;;;;1.60;1.40;;;3.80;98.20;;;;;;4999259;28;20484;-79
2024/01/28 05:34:05;;;;;;;2.10;1.90;;;3.80;98.20;;;;;;5006691;28;20633;-78
2024/01/28 05:36:32;;;;;;;1.60;1.47;;;3.80;98.20;;;;;;4998386;28;20571;-78
2024/01/28 05:38:59;;;;;;;1.60;1.30;;;3.70;98.20;;;;;;5005393;28;20503;-78
2024/01/28 05:41:26;;;;;;;1.80;1.70;;;3.70;98.20;;;;;;5003052;28;20945;-79
2024/01/28 05:43:53;;;;;;;1.60;1.50;;;3.70;98.20;;;;;;5019036;28;20499;-79
2024/01/28 05:46:19;;;;;;;1.60;1.50;;;3.70;98.20;;;;;;5003829;28;20479;-78
2024/01/28 05:48:47;;;;;;;1.60;1.40;;;3.70;98.20;;;;;;5019780;28;20659;-78
2024/01/28 05:51:15;;;;;;;1.60;1.50;;;3.80;98.20;;;;;;4998349;28;20484;-78
2024/01/28 05:53:42;;;;;;;1.60;1.50;;;3.80;98.20;;;;;;5057179;22;20507;-80
2024/01/28 05:56:08;;;;;;;1.60;1.50;;;3.80;98.20;;;;;;5003818;28;20469;-79
2024/01/28 05:58:35;;;;;;;1.67;1.40;;;3.80;98.20;;;;;;5012391;28;20467;-81
2024/01/28 06:01:06;;;;;;;1.60;1.40;;;3.80;98.20;;;;;;5001067;28;20488;-80
2024/01/28 06:03:33;;;;;;;1.67;1.40;;;3.80;98.20;;;;;;5015103;28;20544;-81
2024/01/28 06:06:00;;;;;;;1.63;1.53;;;3.80;98.20;;;;;;4998526;28;20490;-81
2024/01/28 06:08:29;;;;;;;1.60;1.30;;;3.80;98.20;;;;;;5026650;28;20556;-79
2024/01/28 06:10:56;;;;;;;1.67;1.53;;;3.80;98.20;;;;;;4997196;28;20490;-80
2024/01/28 06:13:23;;;;;;;1.60;1.40;;;3.80;98.20;;;;;;5018207;28;20492;-80
2024/01/28 06:15:50;;;;;;;1.60;1.50;;;3.80;98.20;;;;;;4998374;28;20556;-80
2024/01/28 06:18:19;;;;;;;1.67;1.57;;;3.80;98.20;;;;;;5027788;28;20723;-81
2024/01/28 06:20:45;;;;;;;1.60;1.40;;;3.70;98.20;;;;;;5005788;28;20495;-82
2024/01/28 06:23:12;;;;;;;1.60;1.30;;;3.70;98.20;;;;;;4996883;28;20478;-81
2024/01/28 06:25:40;;;;;;;1.60;1.40;;;3.70;98.20;;;;;;5007775;28;20503;-81
2024/01/28 06:28:07;;;;;;;1.60;1.40;;;3.60;98.20;;;;;;5014486;28;20687;-79
2024/01/28 06:30:35;;;;;;;1.63;1.40;;;3.60;98.20;;;;;;4999803;28;20465;-81
2024/01/28 06:33:02;;;;;;;1.60;1.40;;;3.60;98.20;;;;;;5016233;28;20483;-79
2024/01/28 06:35:29;;;;;;;1.60;1.40;;;3.50;98.20;;;;;;5010164;28;20532;-80
2024/01/28 06:37:56;;;;;;;1.60;1.40;;;3.50;98.20;;;;;;5015487;28;20487;-78
2024/01/28 06:40:23;;;;;;;1.60;1.40;;;3.50;98.20;;;;;;5006677;28;21088;-80
2024/01/28 06:42:51;;;;;;;1.60;1.33;;;3.50;98.20;;;;;;5012657;28;20548;-80
2024/01/28 06:45:19;;;;;;;1.70;1.50;;;3.40;98.20;;;;;;5009239;28;20552;-81
2024/01/28 06:47:47;;;;;;;1.60;1.40;;;3.40;98.20;;;;;;5022546;28;21033;-81
2024/01/28 06:50:13;;;;;;;2.57;2.37;;;3.40;98.20;;;;;;5005872;28;20491;-82
2024/01/28 06:52:40;;;;;;;1.60;1.40;;;3.40;98.20;;;;;;5017041;28;20879;-82
2024/01/28 06:55:09;;;;;;;1.60;1.40;;;3.40;98.20;;;;;;5005885;28;21200;-79
2024/01/28 06:57:35;;;;;;;1.60;1.40;;;3.40;98.20;;;;;;5014440;28;20487;-82
2024/01/28 07:00:15;;;;;;;1.60;1.30;;;3.40;98.20;;;;;;5010628;28;20456;-80
2024/01/28 07:02:42;;;;;;;1.80;1.70;;;3.40;98.20;;;;;;5006069;28;20480;-78
2024/01/28 07:05:11;;;;;;;1.60;1.30;;;3.30;98.20;;;;;;5014857;28;20477;-81
2024/01/28 07:07:39;;;;;;;1.60;1.40;;;3.40;98.20;;;;;;5004838;28;20487;-80
2024/01/28 07:10:08;;;;;;;1.60;1.40;;;3.30;98.20;;;;;;5007454;28;20472;-81
2024/01/28 07:12:35;;;;;;;1.60;1.47;;;3.30;98.20;;;;;;5010195;28;20487;-78
2024/01/28 07:15:05;;;;;;;1.63;1.50;;;3.30;98.20;;;;;;5015345;28;20465;-82
2024/01/28 07:17:32;;;;;;;1.60;1.30;;;3.30;98.20;;;;;;5012813;28;20498;-79
2024/01/28 07:20:00;;;;;;;2.40;2.20;;;3.30;98.20;;;;;;5010546;28;20557;-79
2024/01/28 07:22:42;;;;;;;1.60;1.47;;;3.30;98.20;;;;;;5015081;28;20542;-78
2024/01/28 07:25:10;;;;;;;1.60;1.40;;;3.30;98.20;;;;;;5009037;28;20481;-78
2024/01/28 07:27:37;;;;;;;1.60;1.40;;;3.30;98.20;;;;;;5014199;28;20479;-78
2024/01/28 07:30:07;;;;;;;1.70;1.60;;;3.30;98.20;;;;;;5006665;28;20515;-79
2024/01/28 07:32:34;;;;;;;1.60;1.40;;;3.20;98.20;;;;;;5016931;28;20503;-78
2024/01/28 07:35:23;;;;;;;1.60;1.50;;;3.20;98.20;;;;;;5008748;28;20461;-78
2024/01/28 07:37:50;;;;;;;1.60;1.40;;;3.20;98.20;;;;;;5004015;28;20480;-79
2024/01/28 07:40:33;;;;;;;1.60;1.40;;;3.20;98.20;;;;;;5001741;28;21473;-79
2024/01/28 07:43:23;;;;;;;1.60;1.37;;;3.20;98.20;;;;;;5020466;28;20479;-79
2024/01/28 07:46:03;;;;;;;1.60;1.50;;;3.20;98.20;;;;;;5004569;28;20492;-78
2024/01/28 07:48:32;;;;;;;1.60;1.50;;;3.20;98.20;;;;;;5028852;28;20464;-78
2024/01/28 07:51:02;;;;;;;1.63;1.40;;;3.30;98.20;;;;;;5002273;28;20948;-77
2024/01/28 07:53:39;;;;;;;1.60;1.43;;;3.30;98.20;;;;;;5030433;28;20596;-79
2024/01/28 07:56:12;;;;;;;1.60;1.40;;;3.40;98.20;;;;;;5001649;28;20457;-79
2024/01/28 07:58:39;;;;;;;1.60;1.40;;;3.40;98.20;;;;;;5022114;28;20506;-79
2024/01/28 08:01:24;;;;;;;1.60;1.40;;;3.50;98.20;;;;;;5001597;28;20456;-78
2024/01/28 08:03:50;;;;;;;1.60;1.50;;;3.60;98.20;;;;;;5024502;28;20515;-78
2024/01/28 08:06:18;;;;;;;1.70;1.50;;;3.60;98.20;;;;;;4999191;28;20483;-79
2024/01/28 08:11:34;;;;;;;1.60;1.40;;;3.70;98.20;;;;;;5007747;28;20459;-79
2024/01/28 08:14:01;;;;;;;1.60;1.40;;;3.80;98.20;;;;;;5030212;28;20488;-80
2024/01/28 08:16:31;;;;;;;1.60;1.40;;;3.90;98.20;;;;;;5011011;28;20474;-80
2024/01/28 08:18:58;;;;;;;1.60;1.30;;;3.90;98.20;;;;;;5026217;28;20468;-81
2024/01/28 08:21:24;;;;;;;1.63;1.50;;;4.00;98.20;;;;;;5007814;28;20507;-80
2024/01/28 08:23:51;;;;;;;1.60;1.40;;;4.00;98.20;;;;;;5030566;28;20488;-79
2024/01/28 08:26:19;;;;;;;1.60;1.40;;;4.10;98.20;;;;;;5006443;28;20476;-77
2024/01/28 08:28:46;;;;;;;1.60;1.30;;;4.10;98.20;;;;;;5030080;28;20493;-80
2024/01/28 08:31:45;;;;;;;1.90;1.80;;;4.20;98.20;;;;;;5004306;28;20481;-79
2024/01/28 08:34:40;;;;;;;1.60;1.30;;;4.20;98.20;;;;;;5021926;28;20463;-79
2024/01/28 08:37:22;;;;;;;1.70;1.50;;;4.30;98.20;;;;;;5016398;28;20557;-79
2024/01/28 08:39:53;;;;;;;1.60;1.37;;;4.30;98.20;;;;;;5009455;28;20473;-81
2024/01/28 08:42:21;;;;;;;1.60;1.40;;;4.40;98.20;;;;;;5013528;28;20519;-79
2024/01/28 08:44:48;;;;;;;1.60;1.30;;;4.40;98.20;;;;;;5016664;28;20489;-80
2024/01/28 08:47:24;;;;;;;1.60;1.30;;;4.40;98.20;;;;;;5005967;28;20481;-80
2024/01/28 08:50:05;;;;;;;1.70;1.57;;;4.50;98.20;;;;;;5017534;28;20491;-79
2024/01/28 08:52:32;;;;;;;1.60;1.30;;;4.60;98.20;;;;;;5001673;28;20480;-81
2024/01/28 08:55:12;;;;;;;1.60;1.40;;;4.60;98.20;;;;;;5012354;28;20992;-79
2024/01/28 08:57:45;;;;;;;1.60;1.30;;;4.70;98.20;;;;;;5017032;28;20514;-81
2024/01/28 09:00:13;;;;;;;1.60;1.30;;;4.80;98.20;;;;;;5009060;28;20468;-80
2024/01/28 09:02:41;;;;;;;1.70;1.40;;;4.80;98.20;;;;;;5008961;28;20527;-81
2024/01/28 09:05:12;;;;;;;1.60;1.30;;;4.90;98.20;;;;;;5014345;28;20574;-82
2024/01/28 09:07:45;;;;;;;1.60;1.40;;;5.00;98.20;;;;;;5027428;28;20482;-80
2024/01/28 09:10:12;;;;;;;1.60;1.40;;;5.00;98.20;;;;;;5020133;28;20486;-83
2024/01/28 09:12:48;;;;;;;1.70;1.50;;;5.10;98.20;;;;;;5021058;28;20490;-81
2024/01/28 09:15:19;;;;;;;1.60;1.30;;;5.20;98.20;;;;;;5016839;28;20484;-80
2024/01/28 09:18:10;;;;;;;1.60;1.30;;;5.20;98.20;;;;;;5024472;28;20491;-81
2024/01/28 09:20:36;;;;;;;1.60;1.30;;;5.30;98.20;;;;;;5019113;28;20467;-83
2024/01/28 09:23:23;;;;;;;1.70;1.50;;;5.40;98.20;;;;;;5029343;28;20939;-82
2024/01/28 09:25:50;;;;;;;1.60;1.30;;;5.40;98.20;;;;;;5005596;28;20764;-80
2024/01/28 09:28:18;;;;;;;1.60;1.40;;;5.50;98.20;;;;;;5014565;28;20528;-83
2024/01/28 09:30:51;;;;;;;1.60;1.30;;;5.50;98.20;;;;;;5020386;28;20460;-81
2024/01/28 09:33:26;;;;;;;1.60;1.30;;;5.60;98.20;;;;;;4985797;28;20487;-82
2024/01/28 09:35:53;;;;;;;2.17;1.97;;;5.70;98.20;;;;;;5002523;28;20468;-82
2024/01/28 09:38:21;;;;;;;1.60;1.33;;;5.70;98.20;;;;;;5030627;28;20465;-84
2024/01/28 09:40:47;;;;;;;1.60;1.20;;;5.80;98.20;;;;;;5005612;28;20465;-84
2024/01/28 09:43:22;;;;;;;1.60;1.23;;;5.80;98.20;;;;;;5037491;28;20485;-85
2024/01/28 09:45:52;;;;;;;1.60;1.30;;;5.90;98.20;;;;;;5000422;28;20486;-81
2024/01/28 09:48:37;;;;;;;;;;;;;;;;;;;;;
2024/01/28 09:51:04;;;;;;;1.63;1.30;;;6.00;98.20;;;;;;4989813;28;20484;-83
2024/01/28 10:03:22;;;;;;;1.60;1.30;;;6.40;98.20;;;;;;4933128;29;21030;-80
2024/01/28 10:06:04;;;;;;;1.60;1.20;;;6.40;98.20;;;;;;4999072;28;20495;-81
2024/01/28 10:08:59;;;;;;;1.60;1.40;;;6.50;98.20;;;;;;5030863;28;20482;-80
2024/01/28 10:11:58;;;;;;;;;;;;;;;;;;;;;
2024/01/28 10:17:18;;;;;;;1.60;1.30;;;6.90;98.20;;;;;;5012577;28;20474;-82
2024/01/28 10:20:01;;;;;;;1.60;1.30;;;7.00;98.20;;;;;;5023994;28;20466;-80
2024/01/28 10:22:34;;;;;;;1.60;1.20;;;7.00;98.20;;;;;;5006942;28;20555;-80
2024/01/28 10:25:22;;;;;;;1.60;1.20;;;7.10;98.20;;;;;;5014365;28;20935;-82
2024/01/28 10:28:06;;;;;;;3.47;3.20;;;7.20;98.20;;;;;;5024481;28;20510;-81
2024/01/28 10:31:00;;;;;;;2.90;2.70;;;7.30;98.20;;;;;;5019791;28;20468;-82
2024/01/28 10:33:51;;;;;;;1.60;1.20;;;7.30;98.20;;;;;;5001322;28;20479;-80
2024/01/28 10:36:40;;;;;;;;;;;;;;;;;;;;;
2024/01/28 10:39:18;;;;;;;1.60;1.30;;;7.50;98.20;;;;;;5024627;28;20531;-80
2024/01/28 10:41:59;;;;;;;1.60;1.20;;;7.60;98.20;;;;;;5010427;28;20483;-81
2024/01/28 10:44:31;;;;;;;1.60;1.30;;;7.70;98.20;;;;;;5022222;28;20557;-81
2024/01/28 10:53:14;;;;;;;1.60;1.20;;;8.00;98.20;;;;;;5009323;28;20532;-81
2024/01/28 10:55:49;;;;;;;1.60;1.30;;;8.10;98.10;;;;;;5013987;28;20532;-80
2024/01/28 10:58:18;;;;;;;1.60;1.20;;;8.20;98.20;;;;;;5000657;28;20623;-81
2024/01/28 11:00:45;;;;;;;1.60;1.20;;;8.30;98.20;;;;;;5011559;28;20460;-80
2024/01/28 11:03:13;;;;;;;1.60;1.20;;;8.30;98.20;;;;;;4993845;28;20611;-81
2024/01/28 11:05:40;;;;;;;1.60;1.30;;;8.40;98.20;;;;;;5007907;28;20495;-80
2024/01/28 11:08:07;;;;;;;1.60;1.20;;;8.50;98.00;;;;;;4995739;28;20579;-80
2024/01/28 11:10:35;;;;;;;1.60;1.20;;;8.50;96.90;;;;;;5009053;28;20555;-80
2024/01/28 11:13:06;;;;;;;1.60;1.10;;;8.60;97.70;;;;;;4996023;28;20491;-82
2024/01/28 11:15:34;;;;;;;1.60;1.20;;;8.70;97.50;;;;;;5007428;28;20474;-82
2024/01/28 11:18:02;;;;;;;1.60;1.20;;;8.80;97.80;;;;;;4997438;28;20536;-78
2024/01/28 11:20:31;;;;;;;1.60;1.20;;;8.80;97.10;;;;;;5007452;28;21073;-81
2024/01/28 11:22:59;;;;;;;1.60;1.20;;;9.00;97.10;;;;;;5013474;28;20522;-80
2024/01/28 11:25:28;;;;;;;1.60;1.13;;;9.10;96.30;;;;;;5009585;28;20464;-80
2024/01/28 11:28:00;;;;;;;1.60;1.40;;;9.20;96.50;;;;;;5019194;28;20490;-79
2024/01/28 11:30:29;;;;;;;1.60;1.40;;;9.40;96.40;;;;;;5009870;28;20477;-79
2024/01/28 11:33:07;;;;;;;1.60;1.20;;;9.50;95.70;;;;;;5017673;28;20487;-79
2024/01/28 11:35:34;;;;;;;1.60;1.20;;;9.50;95.20;;;;;;5011667;28;20459;-79
2024/01/28 11:38:06;;;;;;;1.60;1.10;;;9.60;94.80;;;;;;5018627;28;20487;-79
2024/01/28 11:40:38;;;;;;;1.60;1.30;;;9.60;94.70;;;;;;5014358;28;20457;-79
2024/01/28 11:43:06;;;;;;;1.60;1.20;;;9.70;94.80;;;;;;5019476;28;20570;-79
2024/01/28 11:45:36;;;;;;;1.60;1.10;;;9.80;94.70;;;;;;5018561;28;20466;-80
2024/01/28 11:48:07;;;;;;;1.57;1.10;;;9.90;95.20;;;;;;5022643;28;20487;-82
2024/01/28 11:50:34;;;;;;;1.57;1.10;;;10.00;94.70;;;;;;5016136;28;20456;-80
2024/01/28 11:53:04;;;;;;;1.60;1.20;;;10.00;95.00;;;;;;5020453;28;20584;-82
2024/01/28 11:55:32;;;;;;;1.60;1.17;;;10.00;93.80;;;;;;5016845;28;20536;-79
2024/01/28 11:57:59;;;;;;;1.60;1.23;;;10.00;93.20;;;;;;5021803;28;20498;-78
2024/01/28 12:00:26;;;;;;;1.57;1.10;;;10.00;93.90;;;;;;5017946;28;20526;-80
2024/01/28 12:02:55;;;;;;;1.53;1.00;;;10.00;93.70;;;;;;5023968;28;20550;-80
2024/01/28 12:05:23;;;;;;;1.57;1.10;;;10.10;93.20;;;;;;5014527;28;20488;-79
2024/01/28 12:07:53;;;;;;;1.53;1.10;;;10.00;93.60;;;;;;5024273;28;20499;-79
2024/01/28 12:10:23;;;;;;;1.60;1.20;;;10.10;94.00;;;;;;5015382;28;20585;-80
2024/01/28 12:12:51;;;;;;;1.57;1.20;;;10.10;93.70;;;;;;5022510;28;20564;-81
2024/01/28 12:15:18;;;;;;;1.53;1.10;;;10.10;93.30;;;;;;5060250;22;20510;-77
2024/01/28 12:18:04;;;;;;;1.50;1.10;;;10.10;93.30;;;;;;4927649;28;20567;-79
2024/01/28 12:23:42;;;;;;;1.53;1.10;;;10.10;93.10;;;;;;4905736;29;21096;-79
2024/01/28 12:26:09;;;;;;;1.60;1.20;;;10.00;93.00;;;;;;4943794;28;20481;-81
2024/01/28 12:28:36;;;;;;;1.70;1.60;;;10.10;94.10;;;;;;4956877;28;20469;-79
2024/01/28 12:31:10;;;;;;;1.57;1.20;;;10.10;93.40;;;;;;4945247;28;21082;-80
2024/01/28 12:34:04;;;;;;;1.60;1.23;;;10.10;94.10;;;;;;4951523;28;20522;-79
2024/01/28 12:36:32;;;;;;;1.63;1.43;;;10.20;93.60;;;;;;4949843;28;20474;-79
2024/01/28 12:39:03;;;;;;;1.60;1.10;;;10.20;94.00;;;;;;4956746;28;20553;-80
2024/01/28 12:41:30;;;;;;;1.70;1.43;;;10.20;93.90;;;;;;4951984;28;20533;-80
2024/01/28 12:43:58;;;;;;;1.60;1.17;;;10.30;93.60;;;;;;4954874;28;20489;-79
2024/01/28 12:46:27;;;;;;;1.57;1.10;;;10.20;93.30;;;;;;4947239;28;20569;-79
2024/01/28 12:49:08;;;;;;;1.53;1.10;;;10.30;93.70;;;;;;4960027;28;20474;-78
2024/01/28 12:51:41;;;;;;;1.60;1.20;;;10.30;93.60;;;;;;4951913;28;20532;-80
2024/01/28 12:54:09;;;;;;;1.53;1.10;;;10.40;93.60;;;;;;4953575;28;20857;-80
2024/01/28 12:56:36;;;;;;;1.60;1.10;;;10.50;92.80;;;;;;4945445;28;20874;-79
2024/01/28 12:59:04;;;;;;;1.60;1.20;;;10.60;92.70;;;;;;4955565;28;20496;-80
2024/01/28 13:01:41;;;;;;;1.60;1.27;;;10.70;92.90;;;;;;4944690;28;20527;-80
2024/01/28 13:04:12;;;;;;;1.60;1.20;;;10.90;92.40;;;;;;4959127;28;20472;-79
2024/01/28 13:06:39;;;;;;;1.60;1.20;;;11.00;91.50;;;;;;4937845;28;20573;-77
2024/01/28 13:09:09;;;;;;;1.60;1.20;;;11.20;91.70;;;;;;4941046;28;20947;-78
2024/01/28 13:11:36;;;;;;;1.60;1.10;;;11.30;92.10;;;;;;4941173;28;21065;-79
2024/01/28 13:14:03;;;;;;;1.53;1.10;;;11.50;91.50;;;;;;4953104;28;20493;-78
2024/01/28 13:16:31;;;;;;;1.60;1.27;;;11.50;89.90;;;;;;4942378;28;20590;-78
2024/01/28 13:18:58;;;;;;;2.10;1.90;;;11.60;90.00;;;;;;4953844;28;20535;-78
2024/01/28 13:21:38;;;;;;;1.60;1.20;;;11.70;89.40;;;;;;4943222;28;20529;-79
2024/01/28 13:24:06;;;;;;;1.57;1.00;;;11.60;89.10;;;;;;4955384;28;20492;-78
2024/01/28 13:26:33;;;;;;;1.60;1.10;;;11.70;90.20;;;;;;4944436;28;20978;-78
2024/01/28 13:29:00;;;;;;;1.57;1.10;;;11.70;88.80;;;;;;4960685;28;20525;-79
2024/01/28 13:31:27;;;;;;;1.60;1.10;;;11.70;89.60;;;;;;4951679;28;20546;-80
2024/01/28 13:33:54;;;;;;;1.60;1.20;;;11.80;89.10;;;;;;4950630;28;20494;-79